sensor_id;sensor_type;location;lat;lon;timestamp;pressure;altitude;pressure_sealevel;temperature;humidity
28344;BME280;15597;50.914;6.638;2024-03-07T00:01:28;101658.50;;;12.91;49.09
28344;BME280;15597;50.914;6.638;2024-03-07T00:03:53;101658.53;;;12.86;49.41
28344;BME280;15597;50.914;6.638;2024-03-07T00:06:19;101664.72;;;12.84;49.22
28344;BME280;15597;50.914;6.638;2024-03-07T00:08:46;101656.88;;;12.79;49.39
28344;BME280;15597;50.914;6.638;2024-03-07T00:11:12;101655.16;;;12.78;49.44
28344;BME280;15597;50.914;6.638;2024-03-07T00:13:37;101662.19;;;12.76;49.35
28344;BME280;15597;50.914;6.638;2024-03-07T00:16:03;101661.38;;;12.73;49.47
28344;BME280;15597;50.914;6.638;2024-03-07T00:18:29;101655.25;;;12.70;49.29
28344;BME280;15597;50.914;6.638;2024-03-07T00:20:55;101660.53;;;12.69;49.19
28344;BME280;15597;50.914;6.638;2024-03-07T00:23:21;101662.31;;;12.65;49.52
28344;BME280;15597;50.914;6.638;2024-03-07T00:25:47;101661.47;;;12.63;49.35
28344;BME280;15597;50.914;6.638;2024-03-07T00:28:16;101661.50;;;12.60;49.34
28344;BME280;15597;50.914;6.638;2024-03-07T00:30:45;101665.06;;;12.56;49.40
28344;BME280;15597;50.914;6.638;2024-03-07T00:33:11;101659.97;;;12.44;49.37
28344;BME280;15597;50.914;6.638;2024-03-07T00:35:37;101661.72;;;12.41;49.27
28344;BME280;15597;50.914;6.638;2024-03-07T00:38:03;101657.38;;;12.40;49.41
28344;BME280;15597;50.914;6.638;2024-03-07T00:40:29;101659.16;;;12.38;49.57
28344;BME280;15597;50.914;6.638;2024-03-07T00:42:55;101663.53;;;12.36;49.18
28344;BME280;15597;50.914;6.638;2024-03-07T00:45:20;101655.69;;;12.35;49.50
28344;BME280;15597;50.914;6.638;2024-03-07T00:47:46;101656.59;;;12.32;49.05
28344;BME280;15597;50.914;6.638;2024-03-07T00:50:13;101661.03;;;12.29;49.33
28344;BME280;15597;50.914;6.638;2024-03-07T00:52:39;101657.56;;;12.26;49.24
28344;BME280;15597;50.914;6.638;2024-03-07T00:55:06;101657.59;;;12.23;49.00
28344;BME280;15597;50.914;6.638;2024-03-07T00:57:33;101647.22;;;12.08;48.99
28344;BME280;15597;50.914;6.638;2024-03-07T00:59:59;101656.91;;;12.04;49.34
28344;BME280;15597;50.914;6.638;2024-03-07T01:02:25;101648.19;;;12.02;49.08
28344;BME280;15597;50.914;6.638;2024-03-07T01:04:51;101652.56;;;12.00;49.21
28344;BME280;15597;50.914;6.638;2024-03-07T01:07:16;101648.22;;;11.96;49.15
28344;BME280;15597;50.914;6.638;2024-03-07T01:09:42;101647.31;;;11.95;49.20
28344;BME280;15597;50.914;6.638;2024-03-07T01:12:08;101641.25;;;11.92;49.25
28344;BME280;15597;50.914;6.638;2024-03-07T01:14:35;101643.03;;;11.90;49.28
28344;BME280;15597;50.914;6.638;2024-03-07T01:17:01;101642.19;;;11.86;49.18
28344;BME280;15597;50.914;6.638;2024-03-07T01:19:27;101630.88;;;11.82;49.25
28344;BME280;15597;50.914;6.638;2024-03-07T01:21:52;101637.00;;;11.80;49.26
28344;BME280;15597;50.914;6.638;2024-03-07T01:24:18;101632.66;;;11.77;49.39
28344;BME280;15597;50.914;6.638;2024-03-07T01:26:46;101637.94;;;11.74;49.30
28344;BME280;15597;50.914;6.638;2024-03-07T01:29:12;101625.75;;;11.70;49.37
28344;BME280;15597;50.914;6.638;2024-03-07T01:31:39;101635.38;;;11.66;49.50
28344;BME280;15597;50.914;6.638;2024-03-07T01:34:04;101630.16;;;11.62;49.56
28344;BME280;15597;50.914;6.638;2024-03-07T01:36:30;101621.47;;;11.58;49.40
28344;BME280;15597;50.914;6.638;2024-03-07T01:38:56;101627.63;;;11.52;49.28
28344;BME280;15597;50.914;6.638;2024-03-07T01:41:21;101618.94;;;11.47;49.35
28344;BME280;15597;50.914;6.638;2024-03-07T01:43:47;101620.75;;;11.40;49.46
28344;BME280;15597;50.914;6.638;2024-03-07T01:46:14;101620.78;;;11.36;49.48
28344;BME280;15597;50.914;6.638;2024-03-07T01:48:40;101625.19;;;11.31;49.54
28344;BME280;15597;50.914;6.638;2024-03-07T01:51:05;101620.84;;;11.27;49.60
28344;BME280;15597;50.914;6.638;2024-03-07T01:53:33;101626.13;;;11.23;49.68
28344;BME280;15597;50.914;6.638;2024-03-07T01:56:00;101615.72;;;11.09;49.62
28344;BME280;15597;50.914;6.638;2024-03-07T01:58:27;101617.56;;;10.98;50.09
28344;BME280;15597;50.914;6.638;2024-03-07T02:00:54;101608.88;;;10.94;49.55
28344;BME280;15597;50.914;6.638;2024-03-07T02:03:20;101617.59;;;10.93;49.96
28344;BME280;15597;50.914;6.638;2024-03-07T02:05:46;101608.84;;;10.93;49.78
28344;BME280;15597;50.914;6.638;2024-03-07T02:08:11;101611.47;;;10.94;50.12
28344;BME280;15597;50.914;6.638;2024-03-07T02:10:37;101614.09;;;10.94;49.76
28344;BME280;15597;50.914;6.638;2024-03-07T02:13:03;101612.38;;;10.93;50.18
28344;BME280;15597;50.914;6.638;2024-03-07T02:15:29;101601.00;;;10.93;49.74
28344;BME280;15597;50.914;6.638;2024-03-07T02:17:55;101608.00;;;10.92;50.15
28344;BME280;15597;50.914;6.638;2024-03-07T02:20:20;101598.41;;;10.91;50.07
28344;BME280;15597;50.914;6.638;2024-03-07T02:22:46;101598.41;;;10.91;50.26
28344;BME280;15597;50.914;6.638;2024-03-07T02:25:12;101605.38;;;10.92;50.52
28344;BME280;15597;50.914;6.638;2024-03-07T02:27:38;101593.19;;;10.88;50.41
28344;BME280;15597;50.914;6.638;2024-03-07T02:30:04;101594.06;;;10.87;50.46
28344;BME280;15597;50.914;6.638;2024-03-07T02:32:37;101601.94;;;10.84;50.07
28344;BME280;15597;50.914;6.638;2024-03-07T02:35:03;101600.25;;;10.75;50.57
28344;BME280;15597;50.914;6.638;2024-03-07T02:37:29;101595.03;;;10.74;50.75
28344;BME280;15597;50.914;6.638;2024-03-07T02:39:54;101597.66;;;10.72;50.61
28344;BME280;15597;50.914;6.638;2024-03-07T02:42:20;101577.59;;;10.71;50.72
28344;BME280;15597;50.914;6.638;2024-03-07T02:44:46;101586.31;;;10.72;50.43
28344;BME280;15597;50.914;6.638;2024-03-07T02:47:12;101591.56;;;10.72;50.11
28344;BME280;15597;50.914;6.638;2024-03-07T02:49:38;101594.19;;;10.72;50.02
28344;BME280;15597;50.914;6.638;2024-03-07T02:52:04;101590.69;;;10.70;49.95
28344;BME280;15597;50.914;6.638;2024-03-07T02:54:33;101584.59;;;10.68;50.21
28344;BME280;15597;50.914;6.638;2024-03-07T02:56:59;101582.00;;;10.68;50.65
28344;BME280;15597;50.914;6.638;2024-03-07T02:59:24;101576.75;;;10.66;50.22
28344;BME280;15597;50.914;6.638;2024-03-07T03:01:50;101573.28;;;10.65;50.53
28344;BME280;15597;50.914;6.638;2024-03-07T03:04:16;101565.44;;;10.62;50.06
28344;BME280;15597;50.914;6.638;2024-03-07T03:06:43;101572.44;;;10.60;50.55
28344;BME280;15597;50.914;6.638;2024-03-07T03:09:09;101577.66;;;10.57;50.13
28344;BME280;15597;50.914;6.638;2024-03-07T03:11:39;101572.44;;;10.54;50.61
28344;BME280;15597;50.914;6.638;2024-03-07T03:14:05;101579.44;;;10.52;49.97
28344;BME280;15597;50.914;6.638;2024-03-07T03:16:30;101577.69;;;10.51;50.40
28344;BME280;15597;50.914;6.638;2024-03-07T03:18:56;101575.94;;;10.50;50.27
28344;BME280;15597;50.914;6.638;2024-03-07T03:21:23;101572.47;;;10.48;50.63
28344;BME280;15597;50.914;6.638;2024-03-07T03:23:49;101569.88;;;10.45;50.66
28344;BME280;15597;50.914;6.638;2024-03-07T03:26:14;101566.41;;;10.40;50.76
28344;BME280;15597;50.914;6.638;2024-03-07T03:28:41;101569.88;;;10.35;50.76
28344;BME280;15597;50.914;6.638;2024-03-07T03:31:07;101565.56;;;10.30;50.46
28344;BME280;15597;50.914;6.638;2024-03-07T03:33:34;101569.06;;;10.27;50.40
28344;BME280;15597;50.914;6.638;2024-03-07T03:36:00;101567.31;;;10.23;50.65
28344;BME280;15597;50.914;6.638;2024-03-07T03:38:26;101562.13;;;10.20;50.54
28344;BME280;15597;50.914;6.638;2024-03-07T03:40:51;101558.66;;;10.15;50.93
28344;BME280;15597;50.914;6.638;2024-03-07T03:43:17;101563.00;;;10.13;50.20
28344;BME280;15597;50.914;6.638;2024-03-07T03:45:44;101560.41;;;10.09;50.38
28344;BME280;15597;50.914;6.638;2024-03-07T03:48:10;101562.16;;;10.07;50.59
28344;BME280;15597;50.914;6.638;2024-03-07T03:50:36;101558.69;;;10.05;50.81
28344;BME280;15597;50.914;6.638;2024-03-07T03:53:02;101558.69;;;10.01;50.35
28344;BME280;15597;50.914;6.638;2024-03-07T03:55:29;101558.72;;;9.99;50.54
28344;BME280;15597;50.914;6.638;2024-03-07T03:57:54;101558.72;;;9.96;50.45
28344;BME280;15597;50.914;6.638;2024-03-07T04:00:20;101555.22;;;9.92;50.45
28344;BME280;15597;50.914;6.638;2024-03-07T04:02:48;101557.88;;;9.91;50.77
28344;BME280;15597;50.914;6.638;2024-03-07T04:05:18;101554.38;;;9.87;50.14
28344;BME280;15597;50.914;6.638;2024-03-07T04:07:44;101553.53;;;9.84;50.60
28344;BME280;15597;50.914;6.638;2024-03-07T04:10:11;101550.06;;;9.82;50.90
28344;BME280;15597;50.914;6.638;2024-03-07T04:12:39;101561.38;;;9.77;50.31
28344;BME280;15597;50.914;6.638;2024-03-07T04:15:06;101553.56;;;9.74;50.99
28344;BME280;15597;50.914;6.638;2024-03-07T04:17:33;101547.44;;;9.71;50.80
28344;BME280;15597;50.914;6.638;2024-03-07T04:20:03;101555.31;;;9.69;51.08
28344;BME280;15597;50.914;6.638;2024-03-07T04:22:35;101549.22;;;9.65;50.89
28344;BME280;15597;50.914;6.638;2024-03-07T04:25:04;101545.72;;;9.63;51.18
28344;BME280;15597;50.914;6.638;2024-03-07T04:27:35;101549.22;;;9.61;51.16
28344;BME280;15597;50.914;6.638;2024-03-07T04:30:09;101547.50;;;9.55;51.15
28344;BME280;15597;50.914;6.638;2024-03-07T04:32:38;101543.13;;;9.53;51.04
28344;BME280;15597;50.914;6.638;2024-03-07T04:35:04;101542.28;;;9.52;51.11
28344;BME280;15597;50.914;6.638;2024-03-07T04:37:39;101544.88;;;9.47;50.89
28344;BME280;15597;50.914;6.638;2024-03-07T04:40:07;101545.75;;;9.48;51.32
28344;BME280;15597;50.914;6.638;2024-03-07T04:42:52;101544.88;;;9.47;51.13
28344;BME280;15597;50.914;6.638;2024-03-07T04:45:18;101539.66;;;9.47;51.29
28344;BME280;15597;50.914;6.638;2024-03-07T04:47:44;101537.91;;;9.46;51.67
28344;BME280;15597;50.914;6.638;2024-03-07T04:50:12;101537.91;;;9.49;51.24
28344;BME280;15597;50.914;6.638;2024-03-07T04:52:39;101539.66;;;9.50;51.46
28344;BME280;15597;50.914;6.638;2024-03-07T04:55:08;101533.53;;;9.52;52.49
28344;BME280;15597;50.914;6.638;2024-03-07T04:57:39;101534.41;;;9.54;51.34
28344;BME280;15597;50.914;6.638;2024-03-07T05:00:11;101539.63;;;9.54;51.43
28344;BME280;15597;50.914;6.638;2024-03-07T05:02:41;101543.13;;;9.53;51.24
28344;BME280;15597;50.914;6.638;2024-03-07T05:05:06;101543.13;;;9.49;51.59
28344;BME280;15597;50.914;6.638;2024-03-07T05:07:33;101545.75;;;9.46;51.29
28344;BME280;15597;50.914;6.638;2024-03-07T05:09:59;101550.09;;;9.44;51.21
28344;BME280;15597;50.914;6.638;2024-03-07T05:12:24;101548.38;;;9.40;51.66
28344;BME280;15597;50.914;6.638;2024-03-07T05:14:50;101541.44;;;9.38;51.18
28344;BME280;15597;50.914;6.638;2024-03-07T05:17:16;101545.75;;;9.34;51.50
28344;BME280;15597;50.914;6.638;2024-03-07T05:19:41;101550.13;;;9.32;51.35
28344;BME280;15597;50.914;6.638;2024-03-07T05:22:07;101539.69;;;9.29;52.09
28344;BME280;15597;50.914;6.638;2024-03-07T05:24:33;101542.28;;;9.26;51.63
28344;BME280;15597;50.914;6.638;2024-03-07T05:26:59;101541.41;;;9.24;51.59
28344;BME280;15597;50.914;6.638;2024-03-07T05:29:25;101543.16;;;9.21;52.07
28344;BME280;15597;50.914;6.638;2024-03-07T05:31:51;101541.44;;;9.20;52.12
28344;BME280;15597;50.914;6.638;2024-03-07T05:34:16;101537.94;;;9.18;51.85
28344;BME280;15597;50.914;6.638;2024-03-07T05:36:46;101539.69;;;9.15;51.68
28344;BME280;15597;50.914;6.638;2024-03-07T05:39:16;101542.31;;;9.13;51.24
28344;BME280;15597;50.914;6.638;2024-03-07T05:41:43;101541.44;;;9.11;51.55
28344;BME280;15597;50.914;6.638;2024-03-07T05:44:11;101538.84;;;9.10;51.48
28344;BME280;15597;50.914;6.638;2024-03-07T05:46:37;101538.84;;;9.10;51.56
28344;BME280;15597;50.914;6.638;2024-03-07T05:49:09;101537.09;;;9.05;51.14
28344;BME280;15597;50.914;6.638;2024-03-07T05:51:35;101540.56;;;9.06;51.72
28344;BME280;15597;50.914;6.638;2024-03-07T05:54:02;101546.66;;;9.05;51.28
28344;BME280;15597;50.914;6.638;2024-03-07T05:56:34;101537.94;;;9.03;51.58
28344;BME280;15597;50.914;6.638;2024-03-07T05:59:04;101544.91;;;9.01;51.77
28344;BME280;15597;50.914;6.638;2024-03-07T06:01:33;101537.06;;;8.99;51.16
28344;BME280;15597;50.914;6.638;2024-03-07T06:04:00;101543.16;;;9.00;51.72
28344;BME280;15597;50.914;6.638;2024-03-07T06:06:26;101550.13;;;8.98;51.50
28344;BME280;15597;50.914;6.638;2024-03-07T06:08:53;101546.66;;;8.96;51.44
28344;BME280;15597;50.914;6.638;2024-03-07T06:11:18;101552.72;;;8.93;51.28
28344;BME280;15597;50.914;6.638;2024-03-07T06:13:48;101548.38;;;8.90;51.82
28344;BME280;15597;50.914;6.638;2024-03-07T06:16:13;101553.59;;;8.87;51.90
28344;BME280;15597;50.914;6.638;2024-03-07T06:18:40;101551.88;;;8.83;51.98
28344;BME280;15597;50.914;6.638;2024-03-07T06:21:06;101548.38;;;8.84;51.91
28344;BME280;15597;50.914;6.638;2024-03-07T06:23:34;101546.66;;;8.86;52.73
28344;BME280;15597;50.914;6.638;2024-03-07T06:26:00;101553.59;;;8.90;52.67
28344;BME280;15597;50.914;6.638;2024-03-07T06:28:26;101553.63;;;8.97;53.02
28344;BME280;15597;50.914;6.638;2024-03-07T06:30:54;101554.50;;;9.03;53.27
28344;BME280;15597;50.914;6.638;2024-03-07T06:33:21;101544.91;;;9.10;53.35
28344;BME280;15597;50.914;6.638;2024-03-07T06:35:47;101544.91;;;9.16;53.69
28344;BME280;15597;50.914;6.638;2024-03-07T06:38:13;101550.13;;;9.23;53.32
28344;BME280;15597;50.914;6.638;2024-03-07T06:40:40;101548.38;;;9.28;53.33
28344;BME280;15597;50.914;6.638;2024-03-07T06:43:08;101551.88;;;9.33;53.24
28344;BME280;15597;50.914;6.638;2024-03-07T06:45:36;101550.13;;;9.38;53.70
28344;BME280;15597;50.914;6.638;2024-03-07T06:48:06;101554.47;;;9.42;53.45
28344;BME280;15597;50.914;6.638;2024-03-07T06:50:37;101544.88;;;9.47;53.44
28344;BME280;15597;50.914;6.638;2024-03-07T06:53:04;101550.09;;;9.54;53.62
28344;BME280;15597;50.914;6.638;2024-03-07T06:55:32;101549.22;;;9.56;52.82
28344;BME280;15597;50.914;6.638;2024-03-07T06:58:01;101544.88;;;9.60;53.30
28344;BME280;15597;50.914;6.638;2024-03-07T07:00:30;101549.22;;;9.62;53.11
28344;BME280;15597;50.914;6.638;2024-03-07T07:02:57;101553.59;;;9.65;52.91
28344;BME280;15597;50.914;6.638;2024-03-07T07:05:22;101543.97;;;9.65;52.83
28344;BME280;15597;50.914;6.638;2024-03-07T07:07:48;101533.53;;;9.65;53.02
28344;BME280;15597;50.914;6.638;2024-03-07T07:10:15;101541.38;;;9.67;53.23
28344;BME280;15597;50.914;6.638;2024-03-07T07:12:47;101538.78;;;9.67;52.63
28344;BME280;15597;50.914;6.638;2024-03-07T07:15:16;101543.97;;;9.69;53.14
28344;BME280;15597;50.914;6.638;2024-03-07T07:17:47;101539.63;;;9.69;52.58
28344;BME280;15597;50.914;6.638;2024-03-07T07:20:18;101535.28;;;9.71;53.55
28344;BME280;15597;50.914;6.638;2024-03-07T07:22:46;101540.47;;;9.76;53.81
28344;BME280;15597;50.914;6.638;2024-03-07T07:25:13;101536.97;;;9.80;53.22
28344;BME280;15597;50.914;6.638;2024-03-07T07:27:46;101535.22;;;9.84;53.75
28344;BME280;15597;50.914;6.638;2024-03-07T07:30:15;101528.22;;;9.87;53.52
28344;BME280;15597;50.914;6.638;2024-03-07T07:32:42;101533.47;;;9.92;53.37
28344;BME280;15597;50.914;6.638;2024-03-07T07:35:10;101527.34;;;9.96;53.64
28344;BME280;15597;50.914;6.638;2024-03-07T07:37:39;101528.19;;;10.00;53.58
28344;BME280;15597;50.914;6.638;2024-03-07T07:40:09;101532.53;;;10.02;53.37
28344;BME280;15597;50.914;6.638;2024-03-07T07:42:39;101530.81;;;10.04;53.47
28344;BME280;15597;50.914;6.638;2024-03-07T07:45:06;101528.16;;;10.06;53.25
28344;BME280;15597;50.914;6.638;2024-03-07T07:47:32;101527.28;;;10.08;53.42
28344;BME280;15597;50.914;6.638;2024-03-07T07:49:58;101528.16;;;10.12;54.11
28344;BME280;15597;50.914;6.638;2024-03-07T07:52:24;101523.78;;;10.13;53.71
28344;BME280;15597;50.914;6.638;2024-03-07T07:54:49;101529.03;;;10.14;53.70
28344;BME280;15597;50.914;6.638;2024-03-07T07:57:15;101534.22;;;10.16;54.39
28344;BME280;15597;50.914;6.638;2024-03-07T07:59:40;101528.13;;;10.17;54.24
28344;BME280;15597;50.914;6.638;2024-03-07T08:02:06;101532.47;;;10.18;53.63
28344;BME280;15597;50.914;6.638;2024-03-07T08:04:32;101532.47;;;10.21;54.26
28344;BME280;15597;50.914;6.638;2024-03-07T08:06:58;101530.72;;;10.21;54.55
28344;BME280;15597;50.914;6.638;2024-03-07T08:09:23;101535.06;;;10.26;54.16
28344;BME280;15597;50.914;6.638;2024-03-07T08:11:50;101541.13;;;10.29;54.13
28344;BME280;15597;50.914;6.638;2024-03-07T08:14:15;101541.13;;;10.32;54.74
28344;BME280;15597;50.914;6.638;2024-03-07T08:16:41;101534.13;;;10.37;54.96
28344;BME280;15597;50.914;6.638;2024-03-07T08:19:07;101530.63;;;10.42;54.68
28344;BME280;15597;50.914;6.638;2024-03-07T08:21:34;101535.84;;;10.48;54.71
28344;BME280;15597;50.914;6.638;2024-03-07T08:23:59;101528.81;;;10.53;54.94
28344;BME280;15597;50.914;6.638;2024-03-07T08:26:29;101525.31;;;10.57;55.25
28344;BME280;15597;50.914;6.638;2024-03-07T08:28:54;101529.69;;;10.61;54.79
28344;BME280;15597;50.914;6.638;2024-03-07T08:31:20;101523.53;;;10.65;54.44
28344;BME280;15597;50.914;6.638;2024-03-07T08:33:45;101524.38;;;10.69;54.68
28344;BME280;15597;50.914;6.638;2024-03-07T08:36:11;101522.63;;;10.73;54.92
28344;BME280;15597;50.914;6.638;2024-03-07T08:38:37;101521.72;;;10.77;54.82
28344;BME280;15597;50.914;6.638;2024-03-07T08:41:03;101525.16;;;10.82;54.58
28344;BME280;15597;50.914;6.638;2024-03-07T08:43:28;101514.66;;;10.85;54.56
28344;BME280;15597;50.914;6.638;2024-03-07T08:45:54;101497.19;;;10.87;54.28
28344;BME280;15597;50.914;6.638;2024-03-07T08:48:20;101511.13;;;10.92;54.63
28344;BME280;15597;50.914;6.638;2024-03-07T08:50:45;101506.75;;;10.94;54.10
28344;BME280;15597;50.914;6.638;2024-03-07T08:53:11;101502.34;;;10.96;54.09
28344;BME280;15597;50.914;6.638;2024-03-07T08:55:36;101507.56;;;11.00;54.46
28344;BME280;15597;50.914;6.638;2024-03-07T08:58:02;101509.31;;;11.01;54.42
28344;BME280;15597;50.914;6.638;2024-03-07T09:00:28;101508.44;;;11.02;54.37
28344;BME280;15597;50.914;6.638;2024-03-07T09:05:20;101505.81;;;11.02;54.56
28344;BME280;15597;50.914;6.638;2024-03-07T09:07:47;101502.38;;;10.93;54.21
28344;BME280;15597;50.914;6.638;2024-03-07T09:10:14;101505.84;;;10.95;54.23
28344;BME280;15597;50.914;6.638;2024-03-07T09:12:40;101496.22;;;10.99;54.10
28344;BME280;15597;50.914;6.638;2024-03-07T09:15:10;101493.56;;;11.04;54.45
28344;BME280;15597;50.914;6.638;2024-03-07T09:17:36;101498.75;;;11.08;53.91
28344;BME280;15597;50.914;6.638;2024-03-07T09:20:06;101500.47;;;11.11;54.18
28344;BME280;15597;50.914;6.638;2024-03-07T09:22:32;101493.50;;;11.10;53.93
28344;BME280;15597;50.914;6.638;2024-03-07T09:24:58;101483.00;;;11.13;53.71
28344;BME280;15597;50.914;6.638;2024-03-07T09:27:24;101489.09;;;11.15;54.09
28344;BME280;15597;50.914;6.638;2024-03-07T09:29:51;101482.97;;;11.16;53.55
28344;BME280;15597;50.914;6.638;2024-03-07T09:32:17;101477.69;;;11.19;53.71
28344;BME280;15597;50.914;6.638;2024-03-07T09:34:42;101479.41;;;11.23;53.61
28344;BME280;15597;50.914;6.638;2024-03-07T09:37:08;101480.25;;;11.25;53.42
28344;BME280;15597;50.914;6.638;2024-03-07T09:39:34;101475.03;;;11.25;53.32
28344;BME280;15597;50.914;6.638;2024-03-07T09:42:07;101486.34;;;11.28;53.41
28344;BME280;15597;50.914;6.638;2024-03-07T09:44:36;101473.22;;;11.31;53.42
28344;BME280;15597;50.914;6.638;2024-03-07T09:47:05;101473.16;;;11.37;53.18
28344;BME280;15597;50.914;6.638;2024-03-07T09:49:32;101470.50;;;11.40;53.11
28344;BME280;15597;50.914;6.638;2024-03-07T09:52:03;101476.63;;;11.40;53.55
28344;BME280;15597;50.914;6.638;2024-03-07T09:54:29;101479.22;;;11.42;53.33
28344;BME280;15597;50.914;6.638;2024-03-07T09:56:58;101474.84;;;11.41;53.31
28344;BME280;15597;50.914;6.638;2024-03-07T09:59:26;101475.72;;;11.45;53.33
28344;BME280;15597;50.914;6.638;2024-03-07T10:01:54;101480.03;;;11.47;53.15
28344;BME280;15597;50.914;6.638;2024-03-07T10:04:42;101479.19;;;11.45;53.38
28344;BME280;15597;50.914;6.638;2024-03-07T10:07:11;101484.38;;;11.48;53.23
28344;BME280;15597;50.914;6.638;2024-03-07T10:09:39;101481.88;;;11.40;53.61
28344;BME280;15597;50.914;6.638;2024-03-07T10:12:06;101482.72;;;11.41;53.79
28344;BME280;15597;50.914;6.638;2024-03-07T10:14:56;101482.69;;;11.44;53.54
28344;BME280;15597;50.914;6.638;2024-03-07T10:17:25;101484.31;;;11.54;53.73
28344;BME280;15597;50.914;6.638;2024-03-07T10:19:54;101474.69;;;11.58;53.46
28344;BME280;15597;50.914;6.638;2024-03-07T10:22:21;101480.75;;;11.62;53.47
28344;BME280;15597;50.914;6.638;2024-03-07T10:24:52;101472.88;;;11.63;53.34
28344;BME280;15597;50.914;6.638;2024-03-07T10:27:19;101474.56;;;11.69;53.58
28344;BME280;15597;50.914;6.638;2024-03-07T10:29:51;101476.28;;;11.73;53.43
28344;BME280;15597;50.914;6.638;2024-03-07T10:32:22;101478.81;;;11.79;53.30
28344;BME280;15597;50.914;6.638;2024-03-07T10:34:50;101475.25;;;11.83;53.13
28344;BME280;15597;50.914;6.638;2024-03-07T10:37:16;101473.44;;;11.89;53.27
28344;BME280;15597;50.914;6.638;2024-03-07T10:39:44;101459.41;;;11.93;53.17
28344;BME280;15597;50.914;6.638;2024-03-07T10:42:13;101466.34;;;11.97;53.21
28344;BME280;15597;50.914;6.638;2024-03-07T10:44:44;101455.84;;;12.00;53.16
28344;BME280;15597;50.914;6.638;2024-03-07T10:52:39;101461.81;;;12.10;52.59
28344;BME280;15597;50.914;6.638;2024-03-07T11:00:12;101448.56;;;12.21;51.99
28344;BME280;15597;50.914;6.638;2024-03-07T11:02:56;101438.88;;;12.26;52.17
28344;BME280;15597;50.914;6.638;2024-03-07T11:05:25;101432.72;;;12.29;51.91
28344;BME280;15597;50.914;6.638;2024-03-07T11:07:52;101420.34;;;12.35;52.23
28344;BME280;15597;50.914;6.638;2024-03-07T11:10:18;101422.88;;;12.41;51.75
28344;BME280;15597;50.914;6.638;2024-03-07T11:12:46;101421.06;;;12.47;51.68
28344;BME280;15597;50.914;6.638;2024-03-07T11:15:14;101416.59;;;12.52;51.90
28344;BME280;15597;50.914;6.638;2024-03-07T11:17:44;101420.06;;;12.55;51.84
28344;BME280;15597;50.914;6.638;2024-03-07T11:20:34;101418.28;;;12.56;52.07
28344;BME280;15597;50.914;6.638;2024-03-07T11:23:00;101416.44;;;12.61;51.93
28344;BME280;15597;50.914;6.638;2024-03-07T11:25:27;101412.88;;;12.65;52.15
28344;BME280;15597;50.914;6.638;2024-03-07T11:27:56;101406.72;;;12.66;52.41
28344;BME280;15597;50.914;6.638;2024-03-07T11:30:22;101405.78;;;12.70;52.06
28344;BME280;15597;50.914;6.638;2024-03-07T11:32:52;101406.59;;;12.76;52.37
28344;BME280;15597;50.914;6.638;2024-03-07T11:35:19;101397.75;;;12.80;52.05
28344;BME280;15597;50.914;6.638;2024-03-07T11:37:57;101402.97;;;12.81;52.31
28344;BME280;15597;50.914;6.638;2024-03-07T11:42:54;101394.91;;;12.92;52.11
28344;BME280;15597;50.914;6.638;2024-03-07T11:45:22;101391.28;;;12.99;52.07
28344;BME280;15597;50.914;6.638;2024-03-07T11:47:56;101376.38;;;13.00;52.01
28344;BME280;15597;50.914;6.638;2024-03-07T11:50:40;101381.56;;;13.03;52.21
28344;BME280;15597;50.914;6.638;2024-03-07T11:53:08;101369.25;;;13.07;51.81
28344;BME280;15597;50.914;6.638;2024-03-07T11:55:38;101372.66;;;13.10;51.54
28344;BME280;15597;50.914;6.638;2024-03-07T11:58:16;101372.66;;;13.12;51.17
28344;BME280;15597;50.914;6.638;2024-03-07T12:00:43;101372.53;;;13.18;51.20
28344;BME280;15597;50.914;6.638;2024-03-07T12:03:16;101371.53;;;13.24;51.24
28344;BME280;15597;50.914;6.638;2024-03-07T12:05:49;101368.88;;;13.25;50.88
28344;BME280;15597;50.914;6.638;2024-03-07T12:08:14;101366.25;;;13.25;51.01
28344;BME280;15597;50.914;6.638;2024-03-07T12:10:42;101354.84;;;13.26;50.44
28344;BME280;15597;50.914;6.638;2024-03-07T12:13:13;101355.69;;;13.28;50.60
28344;BME280;15597;50.914;6.638;2024-03-07T12:15:41;101343.38;;;13.30;50.17
28344;BME280;15597;50.914;6.638;2024-03-07T12:18:08;101357.41;;;13.29;50.15
28344;BME280;15597;50.914;6.638;2024-03-07T12:20:39;101346.91;;;13.29;49.93
28344;BME280;15597;50.914;6.638;2024-03-07T12:23:07;101346.81;;;13.34;50.03
28344;BME280;15597;50.914;6.638;2024-03-07T12:25:40;101338.88;;;13.36;50.14
28344;BME280;15597;50.914;6.638;2024-03-07T12:28:08;101327.41;;;13.40;49.92
28344;BME280;15597;50.914;6.638;2024-03-07T12:30:47;101329.09;;;13.44;50.38
28344;BME280;15597;50.914;6.638;2024-03-07T12:33:13;101323.69;;;13.50;50.56
28344;BME280;15597;50.914;6.638;2024-03-07T12:35:40;101330.63;;;13.54;50.17
28344;BME280;15597;50.914;6.638;2024-03-07T12:38:09;101314.78;;;13.57;50.06
28344;BME280;15597;50.914;6.638;2024-03-07T12:40:42;101320.03;;;13.57;50.03
28344;BME280;15597;50.914;6.638;2024-03-07T12:43:20;101313.13;;;13.53;50.42
28344;BME280;15597;50.914;6.638;2024-03-07T12:45:49;101312.97;;;13.59;49.72
28344;BME280;15597;50.914;6.638;2024-03-07T12:48:18;101299.75;;;13.64;49.87
28344;BME280;15597;50.914;6.638;2024-03-07T12:50:47;101298.78;;;13.67;49.29
28344;BME280;15597;50.914;6.638;2024-03-07T12:53:23;101295.16;;;13.72;49.64
28344;BME280;15597;50.914;6.638;2024-03-07T12:55:51;101289.78;;;13.77;49.28
28344;BME280;15597;50.914;6.638;2024-03-07T12:58:17;101291.47;;;13.81;49.32
28344;BME280;15597;50.914;6.638;2024-03-07T13:00:45;101291.47;;;13.81;49.22
28344;BME280;15597;50.914;6.638;2024-03-07T13:03:11;101287.94;;;13.82;48.83
28344;BME280;15597;50.914;6.638;2024-03-07T13:05:40;101282.59;;;13.85;49.06
28344;BME280;15597;50.914;6.638;2024-03-07T13:08:09;101279.00;;;13.90;48.96
28344;BME280;15597;50.914;6.638;2024-03-07T13:10:44;101274.56;;;13.92;49.23